Time;durP1;ratioP1;P1;durP2;ratioP2;P2;SDS_P1;SDS_P2;PMS_P1;PMS_P2;Temp;Humidity;BMP_temperature;BMP_pressure;BME280_temperature;BME280_humidity;BME280_pressure;Samples;Min_cycle;Max_cycle;Signal;HPM_P1;HPM_P2
2023/03/24 00:02:24;;;;;;;;;12.50;11.50;;;;;11.53;65.92;101270.13;146615;605;45016;-74
2023/03/24 00:05:23;;;;;;;;;14.25;11.25;;;;;11.48;65.88;101265.47;146617;564;46010;-74
2023/03/24 00:08:15;;;;;;;;;9.75;8.00;;;;;11.39;65.95;101262.34;146613;630;45016;-74
2023/03/24 00:11:34;;;;;;;;;11.50;10.50;;;;;11.30;66.06;101265.31;146617;579;45021;-72
2023/03/24 00:14:47;;;;;;;;;;;;;;;;;;;;;
2023/03/24 00:18:06;;;;;;;;;;;;;;;;;;;;;
2023/03/24 00:21:24;;;;;;;;;;;;;;;;;;;;;
2023/03/24 00:24:20;;;;;;;;;13.75;12.25;;;;;11.31;66.03;101264.53;146626;573;45022;-74
2023/03/24 00:27:22;;;;;;;;;13.75;11.00;;;;;11.31;65.88;101268.00;146620;641;45017;-76
2023/03/24 00:30:26;;;;;;;;;11.25;11.25;;;;;11.31;66.31;101262.81;146625;645;45020;-83
2023/03/24 00:33:28;;;;;;;;;16.00;12.25;;;;;11.31;66.19;101255.03;146618;579;45016;-84
2023/03/24 00:36:24;;;;;;;;;12.25;10.00;;;;;11.31;65.85;101254.16;146621;576;45020;-81
2023/03/24 00:39:27;;;;;;;;;13.00;12.50;;;;;11.26;66.06;101261.66;146620;693;45912;-84
2023/03/24 00:42:33;;;;;;;;;15.00;13.50;;;;;11.23;66.20;101258.00;146614;587;45021;-84
2023/03/24 00:45:28;;;;;;;;;17.00;14.50;;;;;11.21;66.29;101267.37;146617;580;45913;-84
2023/03/24 00:48:33;;;;;;;;;13.00;11.00;;;;;11.17;66.51;101266.31;146624;583;45021;-83
2023/03/24 00:51:34;;;;;;;;;12.25;11.75;;;;;11.09;66.42;101260.72;146620;613;45912;-85
2023/03/24 00:54:44;;;;;;;;;15.75;13.50;;;;;11.02;66.80;101261.13;146622;693;45021;-84
2023/03/24 00:58:16;;;;;;;;;10.75;10.00;;;;;8.77;66.96;100888.59;146618;569;46016;-85
2023/03/24 01:01:31;;;;;;;;;;;;;;;;;;;;;
2023/03/24 01:04:30;;;;;;;;;14.25;13.00;;;;;10.73;67.65;101254.25;146619;591;45912;-86
2023/03/24 01:07:33;;;;;;;;;16.50;12.50;;;;;10.70;68.14;101250.59;146622;575;45020;-84
2023/03/24 01:10:49;;;;;;;;;21.00;18.50;;;;;10.73;67.58;101248.19;146612;661;45918;-88
2023/03/24 01:13:46;;;;;;;;;16.50;13.50;;;;;10.67;67.97;101247.81;146615;581;45020;-83
2023/03/24 01:17:00;;;;;;;;;14.25;11.50;;;;;10.64;68.27;101245.94;146615;612;45915;-83
2023/03/24 01:20:35;;;;;;;;;13.25;11.25;;;;;8.60;67.99;100884.09;146617;582;45020;-84
2023/03/24 01:23:34;;;;;;;;;15.00;13.25;;;;;10.67;68.66;101237.44;146615;645;45018;-75
2023/03/24 01:26:34;;;;;;;;;11.75;10.00;;;;;10.66;68.42;101233.97;146617;576;45021;-74
2023/03/24 01:29:35;;;;;;;;;14.00;10.25;;;;;10.65;68.37;101221.78;146614;574;45914;-74
2023/03/24 01:32:45;;;;;;;;;13.50;11.00;;;;;10.60;68.51;101237.09;146617;613;45021;-75
2023/03/24 01:35:44;;;;;;;;;10.50;10.00;;;;;10.55;68.68;101232.41;146615;563;45914;-74
2023/03/24 01:38:59;;;;;;;;;16.00;10.00;;;;;8.27;68.56;100842.41;146618;581;45020;-73
2023/03/24 01:41:53;;;;;;;;;13.50;13.50;;;;;10.44;68.88;101225.72;146615;596;45021;-74
2023/03/24 01:44:58;;;;;;;;;14.75;14.50;;;;;10.42;69.19;101225.62;146614;594;45020;-76
2023/03/24 01:48:37;;;;;;;;;14.50;13.00;;;;;8.44;68.36;100874.50;146614;625;45017;-79
2023/03/24 01:51:36;;;;;;;;;14.25;13.50;;;;;10.49;68.36;101226.87;146618;597;45020;-85
2023/03/24 01:55:04;;;;;;;;;16.00;14.25;;;;;10.44;68.04;101234.38;146613;577;46913;-84
2023/03/24 01:58:25;;;;;;;;;18.75;15.00;;;;;10.43;68.60;101226.50;146617;569;45020;-86
2023/03/24 02:01:38;;;;;;;;;;;;;;;;;;;;;
2023/03/24 02:04:37;;;;;;;;;10.25;10.00;;;;;10.38;68.57;101221.06;146617;644;46012;-75
2023/03/24 02:08:28;;;;;;;;;8.00;8.00;;;;;8.05;68.44;100823.78;146614;578;45017;-74
2023/03/24 02:11:34;;;;;;;;;11.50;11.50;;;;;10.29;68.74;101215.31;146624;607;45029;-78
2023/03/24 02:14:29;;;;;;;;;14.25;11.50;;;;;10.29;68.52;101216.22;146619;592;46012;-77
2023/03/24 02:18:30;;;;;;;;;10.75;8.00;;;;;8.05;67.73;100822.09;146615;593;45049;-77
2023/03/24 02:22:19;;;;;;;;;9.00;7.50;;;;;8.04;67.89;100835.81;146622;603;45913;-78
2023/03/24 02:26:29;;;;;;;;;11.25;9.75;;;;;9.04;68.25;101020.41;146624;564;45021;-78
2023/03/24 02:30:20;;;;;;;;;8.50;8.50;;;;;10.09;68.47;101217.56;146622;575;45016;-77
2023/03/24 02:34:04;;;;;;;;;11.50;8.75;;;;;7.86;68.62;100819.16;146626;619;46010;-74
2023/03/24 02:37:47;;;;;;;;;11.75;10.50;;;;;7.94;68.66;100823.09;146620;625;45018;-77
2023/03/24 02:41:18;;;;;;;;;;;;;;;;;;;;;
2023/03/24 02:45:03;;;;;;;;;9.00;6.25;;;;;8.52;67.82;100929.22;146620;646;46012;-77
2023/03/24 02:48:48;;;;;;;;;11.00;7.50;;;;;7.80;68.32;100806.75;146625;588;46010;-76
2023/03/24 02:52:14;;;;;;;;;10.25;9.25;;;;;10.14;68.40;101216.13;146624;565;45016;-76
2023/03/24 02:56:06;;;;;;;;;13.00;8.75;;;;;7.87;67.72;100831.25;146613;589;46010;-76
2023/03/24 02:59:24;;;;;;;;;14.50;9.75;;;;;7.83;68.21;100835.34;146621;597;45913;-80
2023/03/24 03:02:56;;;;;;;;;12.50;12.00;;;;;7.99;68.52;100885.38;146625;608;45023;-80
2023/03/24 03:06:36;;;;;;;;;17.75;13.25;;;;;9.82;69.28;101221.94;146616;596;45018;-80
2023/03/24 03:10:13;;;;;;;;;17.50;15.00;;;;;7.57;70.67;100844.00;146619;601;46013;-77
2023/03/24 03:13:41;;;;;;;;;14.75;14.50;;;;;8.40;71.06;101008.56;146614;601;47030;-75
2023/03/24 03:16:58;;;;;;;;;10.75;9.75;;;;;9.46;72.33;101213.66;146620;575;45021;-75
2023/03/24 03:20:17;;;;;;;;;10.00;9.00;;;;;9.32;71.70;101213.59;146621;631;45022;-74
2023/03/24 03:23:42;;;;;;;;;7.25;6.00;;;;;6.96;72.09;100816.72;146626;591;45020;-75
2023/03/24 03:26:47;;;;;;;;;10.25;9.75;;;;;9.18;73.50;101220.44;146621;711;45038;-75
2023/03/24 03:30:03;;;;;;;;;;;;;;;;;;;;;
2023/03/24 03:33:11;;;;;;;;;13.75;10.50;;;;;6.96;73.84;100824.47;146621;628;45914;-76
2023/03/24 03:36:29;;;;;;;;;11.00;9.00;;;;;9.21;73.65;101210.28;146618;599;45020;-76
2023/03/24 03:40:02;;;;;;;;;9.50;7.00;;;;;6.98;72.76;100838.34;146622;615;45017;-73
2023/03/24 03:43:21;;;;;;;;;10.50;9.00;;;;;9.22;72.48;101213.00;146625;597;45020;-73
2023/03/24 03:46:24;;;;;;;;;9.50;7.00;;;;;9.20;72.97;101214.59;146622;628;45017;-74
2023/03/24 03:49:26;;;;;;;;;9.75;7.25;;;;;9.21;72.45;101218.94;146624;613;45020;-75
2023/03/24 03:52:35;;;;;;;;;6.00;6.00;;;;;9.25;71.68;101223.56;146620;581;45017;-76
2023/03/24 03:55:47;;;;;;;;;10.25;7.50;;;;;9.27;71.42;101223.63;146626;569;45020;-73
2023/03/24 03:58:53;;;;;;;;;10.50;9.75;;;;;9.29;71.79;101231.50;146623;596;45023;-75
2023/03/24 04:01:59;;;;;;;;;11.75;10.25;;;;;9.29;71.75;101228.91;146613;570;45021;-76
2023/03/24 04:05:30;;;;;;;;;11.25;9.00;;;;;7.09;70.89;100846.78;146615;617;45016;-75
2023/03/24 04:09:07;;;;;;;;;12.00;12.00;;;;;9.39;70.96;101236.47;146626;595;45026;-75
2023/03/24 04:12:32;;;;;;;;;8.75;8.75;;;;;7.11;70.48;100827.19;146616;571;45016;-75
2023/03/24 04:16:27;;;;;;;;;11.00;9.00;;;;;7.25;70.19;100849.59;146627;668;45020;-75
2023/03/24 04:20:04;;;;;;;;;12.50;12.00;;;;;7.00;70.12;100805.81;146613;581;47916;-74
2023/03/24 04:23:29;;;;;;;;;10.50;10.50;;;;;9.46;70.35;101241.22;146618;599;45021;-75
2023/03/24 04:26:53;;;;;;;;;8.25;7.00;;;;;9.41;70.17;101243.53;146617;571;45016;-75
2023/03/24 04:30:25;;;;;;;;;10.50;8.75;;;;;7.89;70.01;100984.59;146625;570;45030;-75
2023/03/24 04:33:29;;;;;;;;;11.00;10.00;;;;;9.33;70.75;101252.50;146622;650;45018;-74
2023/03/24 04:36:42;;;;;;;;;12.75;10.75;;;;;9.30;70.97;101248.81;146611;607;45021;-75
2023/03/24 04:39:55;;;;;;;;;;;;;;;;;;;;;
2023/03/24 04:43:10;;;;;;;;;10.75;7.25;;;;;9.22;71.20;101246.63;146626;611;45022;-76
2023/03/24 04:46:30;;;;;;;;;13.25;10.75;;;;;9.24;72.05;101246.72;146612;611;45019;-79
2023/03/24 04:49:28;;;;;;;;;11.25;10.50;;;;;9.28;71.96;101253.87;146620;650;45020;-78
2023/03/24 04:52:43;;;;;;;;;;;;;;;;;;;;;
2023/03/24 04:56:17;;;;;;;;;13.00;11.00;;;;;9.25;71.26;101259.78;146621;577;45022;-72
2023/03/24 04:59:53;;;;;;;;;;;;;;;;;;;;;
2023/03/24 05:02:55;;;;;;;;;11.25;9.00;;;;;9.30;71.89;101261.75;146623;745;45022;-76
2023/03/24 05:05:59;;;;;;;;;10.00;10.00;;;;;9.55;73.62;101269.41;146623;566;45017;-77
2023/03/24 05:09:00;;;;;;;;;11.25;9.25;;;;;10.18;73.18;101272.53;146612;570;45020;-77
2023/03/24 05:12:07;;;;;;;;;9.75;9.25;;;;;10.96;70.37;101272.88;146617;578;46016;-73
2023/03/24 05:15:02;;;;;;;;;14.25;12.00;;;;;11.63;69.01;101275.84;146626;661;45021;-82
2023/03/24 05:17:59;;;;;;;;;15.50;14.25;;;;;12.23;67.63;101286.09;146617;564;45016;-84
2023/03/24 05:20:59;;;;;;;;;13.00;12.50;;;;;12.89;67.83;101284.31;146621;668;45021;-83
2023/03/24 05:24:14;;;;;;;;;14.00;11.75;;;;;13.69;64.80;101280.44;146615;601;46012;-83
2023/03/24 05:27:14;;;;;;;;;17.00;14.00;;;;;14.39;63.24;101277.59;146618;575;45020;-82
2023/03/24 05:30:39;;;;;;;;;13.00;11.75;;;;;14.97;61.07;101277.53;146616;566;45017;-83
2023/03/24 05:33:43;;;;;;;;;26.00;24.75;;;;;15.43;58.38;101286.38;146623;577;45020;-77
2023/03/24 05:36:45;;;;;;;;;18.75;14.25;;;;;15.65;56.82;101285.50;146615;711;45016;-77
2023/03/24 05:39:47;;;;;;;;;16.50;14.75;;;;;13.62;56.88;100910.97;146618;573;45020;-78
2023/03/24 05:42:51;;;;;;;;;22.75;19.50;;;;;15.78;55.88;101292.16;146619;612;45016;-75
2023/03/24 05:45:56;;;;;;;;;25.50;21.00;;;;;15.65;56.20;101285.50;146620;569;45033;-77
2023/03/24 05:49:09;;;;;;;;;24.00;21.75;;;;;15.55;57.69;101288.59;146618;629;45021;-78
2023/03/24 05:52:19;;;;;;;;;21.25;20.25;;;;;15.54;57.91;101290.31;146614;587;45021;-80
2023/03/24 05:55:30;;;;;;;;;27.00;24.25;;;;;15.58;58.32;101288.72;146618;594;45912;-80
2023/03/24 05:58:27;;;;;;;;;22.25;17.50;;;;;15.64;58.25;101297.69;146618;644;45021;-75
2023/03/24 06:01:30;;;;;;;;;26.50;21.00;;;;;15.72;58.69;101292.78;146616;615;45039;-79
2023/03/24 06:04:34;;;;;;;;;29.50;23.00;;;;;15.79;58.33;101289.56;146622;576;45020;-76
2023/03/24 06:07:42;;;;;;;;;27.25;23.50;;;;;15.82;57.16;101289.69;146614;595;45017;-74
2023/03/24 06:10:49;;;;;;;;;23.50;20.25;;;;;15.65;58.24;101293.34;146612;638;45020;-75
2023/03/24 06:13:49;;;;;;;;;32.50;26.25;;;;;15.51;59.50;101291.91;146616;715;45017;-76
2023/03/24 06:16:58;;;;;;;;;;;;;;;;;;;;;
2023/03/24 06:20:12;;;;;;;;;29.25;26.50;;;;;15.62;61.28;101286.28;146616;570;45018;-77
2023/03/24 06:23:17;;;;;;;;;34.50;27.50;;;;;15.75;61.03;101292.03;146617;584;45047;-77
2023/03/24 06:26:17;;;;;;;;;29.00;26.25;;;;;15.89;60.46;101291.75;146612;590;45016;-78
2023/03/24 06:29:19;;;;;;;;;29.75;26.00;;;;;16.02;60.71;101292.22;146618;645;45021;-80
2023/03/24 06:32:25;;;;;;;;;28.50;25.50;;;;;16.07;60.71;101285.41;146615;582;45016;-85
2023/03/24 06:35:27;;;;;;;;;32.25;28.00;;;;;16.11;60.32;101292.56;146619;622;45020;-90
2023/03/24 06:38:50;;;;;;;;;25.00;22.25;;;;;16.20;61.05;101300.75;146617;566;45017;-87
2023/03/24 06:42:07;;;;;;;;;25.50;23.50;;;;;16.25;60.72;101307.03;146613;595;45020;-76
2023/03/24 06:45:23;;;;;;;;;30.00;27.00;;;;;16.20;59.39;101303.38;146615;618;45016;-79
2023/03/24 06:48:27;;;;;;;;;31.50;28.75;;;;;16.22;60.87;101300.81;146617;598;45020;-74
2023/03/24 06:51:24;;;;;;;;;34.50;28.00;;;;;16.24;60.13;101304.37;146615;705;45017;-79
2023/03/24 06:54:24;;;;;;;;;30.00;27.25;;;;;16.29;60.24;101314.19;146619;602;45020;-79
2023/03/24 06:57:21;;;;;;;;;33.25;29.75;;;;;16.46;60.32;101311.28;146616;586;45016;-79
2023/03/24 07:00:38;;;;;;;;;29.75;26.50;;;;;15.73;60.22;101147.28;146619;600;45020;-79
2023/03/24 07:03:55;;;;;;;;;34.50;26.50;;;;;14.86;59.42;100959.37;146615;636;45910;-79
2023/03/24 07:07:20;;;;;;;;;29.75;27.00;;;;;15.20;59.25;100978.09;146617;681;46011;-78
2023/03/24 07:10:21;;;;;;;;;24.50;20.50;;;;;17.27;58.15;101317.66;146615;596;45910;-78
2023/03/24 07:13:18;;;;;;;;;20.50;17.50;;;;;17.36;58.53;101329.31;146613;613;45020;-77
2023/03/24 07:16:16;;;;;;;;;23.75;20.75;;;;;17.44;59.16;101333.94;146617;589;45016;-83
2023/03/24 07:19:14;;;;;;;;;24.75;22.75;;;;;17.65;58.54;101327.63;146618;624;45021;-82
2023/03/24 07:22:16;;;;;;;;;23.00;20.00;;;;;17.84;58.25;101337.88;146617;591;45017;-83
2023/03/24 07:25:15;;;;;;;;;25.75;24.00;;;;;17.99;57.86;101341.00;146619;608;45047;-83
2023/03/24 07:28:16;;;;;;;;;27.00;24.75;;;;;18.06;56.09;101335.94;146617;652;45016;-83
2023/03/24 07:31:21;;;;;;;;;28.50;25.75;;;;;18.01;57.72;101338.44;146619;574;45020;-82
2023/03/24 07:34:22;;;;;;;;;26.75;23.75;;;;;18.05;56.99;101339.41;146614;589;46012;-82
2023/03/24 07:37:29;;;;;;;;;25.25;22.75;;;;;18.09;56.79;101336.91;146619;673;45021;-82
2023/03/24 07:40:34;;;;;;;;;26.00;19.50;;;;;18.03;56.51;101330.59;146612;630;47012;-82
2023/03/24 07:43:37;;;;;;;;;21.00;20.25;;;;;18.03;57.37;101333.22;146613;564;45021;-82
2023/03/24 07:46:47;;;;;;;;;22.50;19.75;;;;;18.04;57.52;101332.37;146612;577;45914;-82
2023/03/24 07:50:08;;;;;;;;;23.50;19.00;;;;;18.15;57.97;101334.47;146618;593;45049;-76
2023/03/24 07:53:18;;;;;;;;;;;;;;;;;;;;;
2023/03/24 07:56:19;;;;;;;;;27.00;24.75;;;;;18.53;56.91;101320.69;146617;638;45022;-79
2023/03/24 07:59:19;;;;;;;;;25.00;21.75;;;;;18.66;55.23;101320.16;146615;619;45017;-79
2023/03/24 08:02:28;;;;;;;;;32.75;25.75;;;;;18.82;56.00;101321.53;146618;575;45020;-79
2023/03/24 08:05:39;;;;;;;;;29.50;25.25;;;;;17.84;56.29;101133.28;146613;593;46012;-80
2023/03/24 08:08:37;;;;;;;;;22.00;17.00;;;;;18.93;55.34;101310.44;146619;577;45020;-81
2023/03/24 08:11:38;;;;;;;;;18.25;17.50;;;;;18.88;54.59;101313.84;146619;601;45016;-80
2023/03/24 08:14:40;;;;;;;;;20.00;16.25;;;;;18.88;55.20;101301.56;146617;624;45020;-79
2023/03/24 08:17:57;;;;;;;;;18.00;13.25;;;;;17.10;55.46;100975.59;146609;580;48915;-78
2023/03/24 08:21:08;;;;;;;;;12.25;11.50;;;;;19.19;53.83;101314.59;146620;620;45021;-80
2023/03/24 08:24:06;;;;;;;;;12.25;11.00;;;;;19.22;53.19;101312.06;146620;701;45021;-79
2023/03/24 08:27:18;;;;;;;;;11.50;10.00;;;;;19.23;52.46;101306.84;146621;607;46010;-78
2023/03/24 08:30:03;;;;;;;;;11.50;10.25;;;;;19.24;50.92;101298.09;146714;564;45014;-79
2023/03/24 08:33:11;;;;;;;;;14.25;12.00;;;;;19.28;52.45;101302.59;146622;586;45016;-83
2023/03/24 08:36:16;;;;;;;;;10.75;10.75;;;;;19.29;51.83;101300.88;146617;564;46011;-81
2023/03/24 08:39:17;;;;;;;;;11.00;8.50;;;;;19.24;52.49;101302.47;146615;573;46012;-82
2023/03/24 08:42:14;;;;;;;;;12.75;9.50;;;;;19.26;53.57;101298.16;146629;652;45021;-79
2023/03/24 08:45:12;;;;;;;;;14.50;11.50;;;;;19.31;53.25;101300.03;146621;599;45917;-80
2023/03/24 08:48:22;;;;;;;;;9.75;8.50;;;;;19.29;50.79;101301.75;146620;591;45020;-78
2023/03/24 08:51:40;;;;;;;;;9.75;7.25;;;;;19.24;52.45;101303.34;146621;579;46012;-81
2023/03/24 08:54:57;;;;;;;;;11.75;9.75;;;;;19.15;50.75;101292.59;146627;687;45020;-80
2023/03/24 08:58:02;;;;;;;;;10.25;10.25;;;;;19.25;48.71;101293.72;146622;652;45917;-80
2023/03/24 09:00:59;;;;;;;;;10.50;9.00;;;;;19.28;51.88;101297.34;146617;569;46010;-79
2023/03/24 09:04:04;;;;;;;;;8.50;8.25;;;;;19.31;53.15;101300.03;146621;667;45917;-80
2023/03/24 09:06:59;;;;;;;;;10.00;9.00;;;;;19.36;52.17;101297.53;146627;588;46010;-79
2023/03/24 09:10:25;;;;;;;;;;;;;;;;;;;;;
2023/03/24 09:13:31;;;;;;;;;7.00;7.00;;;;;19.46;50.85;101298.63;146629;582;45021;-79
2023/03/24 09:16:42;;;;;;;;;9.67;7.33;;;;;19.58;49.88;101298.91;146623;617;46014;-80
2023/03/24 09:19:56;;;;;;;;;7.00;6.00;;;;;19.67;47.97;101296.53;146631;650;45021;-80
2023/03/24 09:23:10;;;;;;;;;5.00;5.00;;;;;19.70;46.96;101299.25;146621;569;46012;-79
2023/03/24 09:26:12;;;;;;;;;7.25;6.75;;;;;19.82;50.04;101293.38;146627;720;45020;-79
2023/03/24 09:29:16;;;;;;;;;5.00;5.00;;;;;19.95;49.81;101277.00;146621;631;46012;-80
2023/03/24 09:32:20;;;;;;;;;9.33;9.00;;;;;20.11;49.93;101290.50;146626;595;46010;-81
2023/03/24 09:35:23;;;;;;;;;8.00;8.00;;;;;20.12;51.55;101292.25;146622;694;45915;-83
2023/03/24 09:38:16;;;;;;;;;12.50;10.00;;;;;20.11;46.53;101293.12;146625;661;46010;-80
2023/03/24 09:41:24;;;;;;;;;8.00;7.00;;;;;20.03;51.01;101287.69;146616;606;46012;-81
2023/03/24 09:45:04;;;;;;;;;11.50;8.50;;;;;19.97;50.73;101272.66;146626;601;45021;-79
2023/03/24 09:48:09;;;;;;;;;7.00;6.00;;;;;20.10;47.80;101289.59;146621;688;46012;-80
2023/03/24 09:51:33;;;;;;;;;6.33;6.33;;;;;19.90;49.46;101247.03;146628;574;45021;-79
2023/03/24 09:55:01;;;;;;;;;6.00;6.00;;;;;20.18;45.87;101287.13;146621;579;45915;-78
2023/03/24 09:58:43;;;;;;;;;7.67;7.00;;;;;20.16;47.25;101262.53;146628;577;45021;-81
2023/03/24 10:01:41;;;;;;;;;7.00;6.00;;;;;20.30;47.26;101277.72;146625;569;45915;-80
2023/03/24 10:04:39;;;;;;;;;6.67;5.67;;;;;20.39;46.88;101282.28;146629;588;45021;-79
2023/03/24 10:08:09;;;;;;;;;4.67;4.00;;;;;20.50;49.22;101272.88;146623;631;45915;-80
2023/03/24 10:11:50;;;;;;;;;8.00;7.33;;;;;20.60;49.01;101276.59;146624;601;46010;-82
2023/03/24 10:15:24;;;;;;;;;7.00;6.00;;;;;20.66;47.73;101274.09;146623;592;45913;-81
2023/03/24 10:18:44;;;;;;;;;7.33;6.00;;;;;19.69;41.38;101115.03;146627;582;45020;-80
2023/03/24 10:22:16;;;;;;;;;5.00;5.00;;;;;20.52;47.09;101267.66;146623;604;45034;-79
2023/03/24 10:25:36;;;;;;;;;6.00;4.67;;;;;20.57;47.55;101266.00;146628;575;45020;-81
2023/03/24 10:28:56;;;;;;;;;4.00;3.67;;;;;20.71;48.12;101267.13;146622;641;45916;-80
2023/03/24 10:32:07;;;;;;;;;4.00;4.00;;;;;20.91;45.90;101261.34;146620;576;46010;-79
2023/03/24 10:35:22;;;;;;;;;5.00;5.00;;;;;21.09;42.64;101264.31;146617;593;45017;-82
2023/03/24 10:38:31;;;;;;;;;5.00;5.00;;;;;21.14;44.72;101254.69;146621;607;45020;-81
2023/03/24 10:41:56;;;;;;;;;7.00;5.67;;;;;20.40;47.05;101119.88;146616;662;45917;-80
2023/03/24 10:44:55;;;;;;;;;5.00;4.33;;;;;21.25;44.48;101254.91;146624;604;46008;-80
2023/03/24 10:48:38;;;;;;;;;6.00;5.00;;;;;21.31;43.93;101246.16;146618;614;45917;-80
2023/03/24 10:51:40;;;;;;;;;4.33;4.00;;;;;21.34;43.65;101246.22;146619;578;45021;-81
2023/03/24 10:55:13;;;;;;;;;4.33;4.33;;;;;21.33;41.55;101239.19;146616;656;45917;-80
2023/03/24 10:58:13;;;;;;;;;8.67;6.67;;;;;21.28;42.19;101235.56;146715;566;45023;-81
2023/03/24 11:01:46;;;;;;;;;6.33;4.67;;;;;21.25;43.91;101231.16;146626;598;45943;-80
2023/03/24 11:05:05;;;;;;;;;6.67;6.00;;;;;21.05;44.00;101214.13;146634;597;45021;-78
2023/03/24 11:08:27;;;;;;;;;9.00;8.00;;;;;21.09;42.98;101219.47;146628;563;45916;-81
2023/03/24 11:11:44;;;;;;;;;10.00;9.00;;;;;21.16;46.15;101226.63;146633;607;46010;-80
2023/03/24 11:14:59;;;;;;;;;7.67;7.00;;;;;21.23;43.96;101210.03;146626;575;46014;-79
2023/03/24 11:18:17;;;;;;;;;7.67;7.00;;;;;21.28;41.96;101207.47;146633;573;45020;-82
2023/03/24 11:21:10;;;;;;;;;5.67;5.67;;;;;21.01;42.78;101209.66;146628;593;45028;-79
2023/03/24 11:24:33;;;;;;;;;;;;;;;;;;;;;
2023/03/24 11:27:46;;;;;;;;;13.33;9.67;;;;;20.14;45.99;101191.38;146625;608;46012;-84
2023/03/24 11:31:03;;;;;;;;;11.33;11.33;;;;;19.87;48.22;101196.09;146631;663;46010;-81
2023/03/24 11:34:41;;;;;;;;;11.33;11.33;;;;;19.78;46.83;101189.81;146620;598;45914;-83
2023/03/24 11:37:40;;;;;;;;;10.00;8.00;;;;;19.67;46.56;101167.62;146626;565;45022;-81
2023/03/24 11:41:06;;;;;;;;;9.67;8.33;;;;;19.55;47.05;101172.59;146629;578;45914;-81
2023/03/24 11:44:41;;;;;;;;;10.50;9.00;;;;;19.62;50.34;101169.22;146632;624;45021;-81
2023/03/24 11:47:51;;;;;;;;;10.33;9.67;;;;;18.54;49.20;100923.31;146623;580;45016;-81
2023/03/24 11:50:58;;;;;;;;;7.00;6.00;;;;;20.19;47.05;101158.16;146635;638;45021;-79
2023/03/24 11:54:30;;;;;;;;;9.25;9.25;;;;;19.77;47.64;101039.78;146626;696;46012;-79
2023/03/24 11:58:15;;;;;;;;;12.00;11.00;;;;;20.53;47.43;101143.00;146625;589;45021;-83
2023/03/24 12:01:57;;;;;;;;;9.50;8.50;;;;;20.39;46.41;101097.03;146611;729;46012;-81
2023/03/24 12:05:26;;;;;;;;;12.75;10.75;;;;;20.65;47.34;101140.53;146626;571;45023;-80
2023/03/24 12:08:56;;;;;;;;;11.50;9.50;;;;;20.59;47.70;101142.19;146610;571;45914;-80
2023/03/24 12:12:36;;;;;;;;;13.25;13.25;;;;;20.54;49.28;101144.75;146623;576;45021;-81
2023/03/24 12:16:32;;;;;;;;;;;;;;;;;;;;;
2023/03/24 12:20:04;;;;;;;;;9.75;9.25;;;;;20.56;48.98;101126.31;146616;683;46011;-79
2023/03/24 12:23:35;;;;;;;;;15.00;11.75;;;;;20.58;49.77;101122.88;146620;645;45914;-80
2023/03/24 12:26:44;;;;;;;;;15.50;12.00;;;;;20.65;48.46;101126.47;146618;605;45021;-79
2023/03/24 12:30:28;;;;;;;;;13.50;10.00;;;;;20.65;47.49;101106.28;146611;731;46012;-82
2023/03/24 12:33:56;;;;;;;;;12.50;12.25;;;;;20.76;45.29;101117.91;146613;564;46010;-81
2023/03/24 12:37:19;;;;;;;;;11.50;11.50;;;;;19.82;48.94;100956.56;146613;580;45018;-82
2023/03/24 12:40:53;;;;;;;;;12.25;11.75;;;;;20.73;49.39;101083.59;146616;679;45020;-81
2023/03/24 12:44:44;;;;;;;;;11.50;11.00;;;;;20.83;47.11;101079.34;146615;621;45916;-80
2023/03/24 12:48:13;;;;;;;;;10.25;9.75;;;;;20.87;47.49;101094.34;146617;710;45021;-82
2023/03/24 12:51:52;;;;;;;;;13.00;11.00;;;;;20.87;47.64;101081.19;146620;584;46914;-81
2023/03/24 12:55:36;;;;;;;;;12.75;11.50;;;;;20.85;47.90;101082.00;146617;564;46010;-81
2023/03/24 12:59:00;;;;;;;;;12.25;11.00;;;;;20.82;47.35;101084.59;146634;638;46012;-81
2023/03/24 13:02:24;;;;;;;;;12.00;11.75;;;;;19.85;47.93;100927.66;146639;579;44020;-79
2023/03/24 13:05:55;;;;;;;;;10.00;10.00;;;;;20.52;47.25;101068.31;146637;659;45912;-79
2023/03/24 13:09:33;;;;;;;;;;;;;;;;;;;;;
2023/03/24 13:13:24;;;;;;;;;11.00;10.25;;;;;20.53;48.59;101046.41;146638;604;44916;-79
2023/03/24 13:16:54;;;;;;;;;12.25;11.75;;;;;20.52;47.77;101047.25;146640;591;44020;-81
2023/03/24 13:20:09;;;;;;;;;11.75;11.25;;;;;20.49;49.32;101062.09;146636;569;44912;-81
2023/03/24 13:23:34;;;;;;;;;13.00;11.33;;;;;20.48;50.19;101055.06;146640;635;44020;-81
2023/03/24 13:27:16;;;;;;;;;12.67;10.67;;;;;20.21;49.80;101018.62;146637;656;45912;-81
2023/03/24 13:30:54;;;;;;;;;11.25;10.50;;;;;20.13;49.76;101030.78;146638;573;44020;-79
2023/03/24 13:34:11;;;;;;;;;11.25;9.25;;;;;20.08;48.54;101044.72;146636;675;46012;-80
2023/03/24 13:37:21;;;;;;;;;12.75;11.00;;;;;20.01;49.97;101037.59;146643;688;46012;-79
2023/03/24 13:40:51;;;;;;;;;12.25;10.50;;;;;20.01;49.15;101040.22;146637;612;45012;-84
2023/03/24 13:44:15;;;;;;;;;8.25;8.00;;;;;19.92;49.95;101036.53;146640;608;44020;-82
2023/03/24 13:47:33;;;;;;;;;11.67;8.67;;;;;19.71;50.27;101040.53;146644;647;45912;-81
2023/03/24 13:50:40;;;;;;;;;10.25;8.25;;;;;19.54;50.93;101034.06;146647;563;44020;-79
2023/03/24 13:54:21;;;;;;;;;12.00;10.25;;;;;19.42;51.98;101028.56;146644;596;44916;-79
2023/03/24 13:57:28;;;;;;;;;12.00;12.00;;;;;19.38;52.45;101032.88;146628;650;45012;-83
2023/03/24 14:00:32;;;;;;;;;11.50;10.75;;;;;17.74;51.76;100764.03;146619;565;45912;-81
2023/03/24 14:03:57;;;;;;;;;11.75;10.75;;;;;19.12;52.62;101013.91;146623;620;45021;-80
2023/03/24 14:07:55;;;;;;;;;8.00;8.00;;;;;19.00;53.53;101001.38;146623;691;45016;-80
2023/03/24 14:10:53;;;;;;;;;10.50;10.50;;;;;19.08;53.29;101012.97;146634;569;45020;-79
2023/03/24 14:13:50;;;;;;;;;11.25;11.25;;;;;19.13;53.94;101007.81;146620;569;46012;-79
2023/03/24 14:17:19;;;;;;;;;11.25;9.50;;;;;19.22;53.20;101008.00;146624;626;45020;-80
2023/03/24 14:20:27;;;;;;;;;11.25;9.75;;;;;18.40;52.39;100860.87;146625;628;45018;-78
2023/03/24 14:23:56;;;;;;;;;9.75;8.75;;;;;19.27;52.82;101010.72;146629;606;46010;-83
2023/03/24 14:27:30;;;;;;;;;12.50;9.75;;;;;19.21;53.60;101006.22;146629;566;45019;-82
2023/03/24 14:30:33;;;;;;;;;8.75;8.75;;;;;19.21;54.66;101013.22;146633;647;45022;-81
2023/03/24 14:34:05;;;;;;;;;9.50;8.00;;;;;19.14;54.52;101001.69;146627;674;46012;-82
2023/03/24 14:37:18;;;;;;;;;7.75;7.75;;;;;19.07;53.40;101003.31;146632;688;45020;-84
2023/03/24 14:40:44;;;;;;;;;7.00;6.75;;;;;18.83;53.17;100964.25;146627;601;45912;-81
2023/03/24 14:44:14;;;;;;;;;8.00;7.25;;;;;18.90;53.50;100986.28;146627;578;45050;-81
2023/03/24 14:47:50;;;;;;;;;11.75;10.75;;;;;18.89;53.86;100995.91;146625;572;46910;-83
2023/03/24 14:50:46;;;;;;;;;7.00;7.00;;;;;18.78;53.85;100986.00;146625;603;45022;-83
2023/03/24 14:53:51;;;;;;;;;8.00;7.25;;;;;18.62;54.04;100983.00;146627;685;45912;-81
2023/03/24 14:57:06;;;;;;;;;9.50;9.50;;;;;18.51;55.03;100983.66;146630;666;46010;-83
2023/03/24 15:00:37;;;;;;;;;11.50;10.00;;;;;18.41;55.91;100982.50;146626;622;45928;-81
2023/03/24 15:04:11;;;;;;;;;10.50;9.00;;;;;18.41;56.30;100979.87;146625;678;45023;-85
2023/03/24 15:07:21;;;;;;;;;12.00;10.00;;;;;18.29;57.11;100982.25;146627;686;45912;-80
2023/03/24 15:10:26;;;;;;;;;10.00;10.00;;;;;18.28;57.40;100976.09;146625;608;45021;-82
2023/03/24 15:13:46;;;;;;;;;12.00;12.00;;;;;18.34;56.98;100977.97;146619;577;45912;-82
2023/03/24 15:17:25;;;;;;;;;8.75;7.50;;;;;18.31;56.34;100957.78;146622;653;47010;-81
2023/03/24 15:20:39;;;;;;;;;9.00;9.00;;;;;18.40;56.30;100971.12;146626;579;45893;-81
2023/03/24 15:23:49;;;;;;;;;9.25;9.25;;;;;18.42;57.42;100976.44;146630;577;45020;-80
2023/03/24 15:26:52;;;;;;;;;13.25;12.25;;;;;18.37;59.13;100965.81;146624;659;45917;-82
2023/03/24 15:30:29;;;;;;;;;;;;;;;;;;;;;